America — WDE6076 — position and weather

sailwx.info

Track history (hours):
 
Tides and Currents Weather Stations Pressure Air Temp Water Temp Dewpoint Dewpoint Depression Visibility Wind Speed Wind Dir Waves Ship Positions

America

Owner: ET Yacht, LLC, San Diego, CA. More information available from US FCC via Universal Licensing System and Coast Guard Vessel Documentation Center.

Last reported at 2016-Jul-27 18:31 UTC. Time now 2016-Jul-27 19:18 UTC.
Position N 42°21' W 071°03'.

Length 42 m; draft 3.5 m.

Type: Sailing vessel. MMSI: 367375550.

Date/timePositionNaut miles runAvg speedWind from/ knotsBaromVisibWave heightAir tempDewpointWater temp
2016-Jul-27 18:31N 42°21' W 071°03'0 0.0
2016-Jul-27 17:31N 42°21' W 071°03'0 0.0
2016-Jul-27 16:31N 42°21' W 071°03'0 0.0
2016-Jul-27 15:31N 42°21' W 071°03'0 0.0
2016-Jul-27 14:31N 42°21' W 071°03'0 0.0
2016-Jul-27 13:31N 42°21' W 071°03'0 0.0
2016-Jul-27 12:31N 42°21' W 071°03'0 0.0
2016-Jul-27 11:32N 42°21' W 071°03'0 0.0
2016-Jul-27 10:33N 42°21' W 071°03'0 0.0
2016-Jul-27 09:32N 42°21' W 071°03'0 0.0
2016-Jul-27 08:32N 42°21' W 071°03'0 0.0
2016-Jul-27 07:32N 42°21' W 071°03'0 0.0
2016-Jul-27 06:33N 42°21' W 071°03'0 0.0
2016-Jul-27 05:30N 42°21' W 071°03'0 0.0
2016-Jul-27 04:33N 42°21' W 071°03'0 0.0
2016-Jul-27 03:31N 42°21' W 071°03'0 0.0
2016-Jul-27 02:32N 42°21' W 071°03'0 0.1
2016-Jul-27 01:33N 42°21' W 071°02'7 7.5
2016-Jul-27 00:33N 42°19' W 070°53'2 2.4
2016-Jul-26 23:33N 42°21' W 070°56'3 3.1
2016-Jul-26 22:33N 42°22' W 070°59'0 0.0
2016-Jul-26 21:33N 42°22' W 070°59'0 0.0
2016-Jul-26 20:33N 42°22' W 070°59'0 0.5
2016-Jul-26 19:33N 42°22' W 070°59'7 6.8
2016-Jul-26 18:33N 42°17' W 070°53'1 0.9
2016-Jul-26 17:28N 42°16' W 070°52'0 0.0
2016-Jul-26 16:19N 42°16' W 070°52'0 0.0
2016-Jul-26 15:29N 42°16' W 070°52'0 0.0
2016-Jul-26 14:19N 42°16' W 070°52'0 0.0
2016-Jul-26 13:25N 42°16' W 070°52'0 0.0
2016-Jul-26 12:19N 42°16' W 070°52'0 0.0
2016-Jul-26 11:31N 42°16' W 070°52'0 0.0
2016-Jul-26 10:28N 42°16' W 070°52'0 0.0
2016-Jul-26 09:31N 42°16' W 070°52'0 0.0
2016-Jul-26 08:32N 42°16' W 070°52'0 0.0
2016-Jul-26 07:28N 42°16' W 070°52'0 0.0
2016-Jul-26 06:32N 42°16' W 070°52'0 0.0
2016-Jul-26 05:32N 42°16' W 070°52'0 0.0
2016-Jul-26 04:31N 42°16' W 070°52'0 0.0
2016-Jul-26 03:31N 42°16' W 070°52'0 0.0
2016-Jul-26 02:16N 42°16' W 070°52'0 0.0
2016-Jul-26 01:33N 42°16' W 070°52'0 0.0
2016-Jul-26 00:32N 42°16' W 070°52'0 0.0
2016-Jul-25 23:32N 42°16' W 070°52'0 0.0
2016-Jul-25 22:31N 42°16' W 070°52'0 0.0
2016-Jul-25 21:31N 42°16' W 070°52'0 0.0
2016-Jul-25 20:27N 42°16' W 070°52'0 0.0
2016-Jul-25 19:30N 42°16' W 070°52'0 0.0
2016-Jul-25 18:24N 42°16' W 070°52'0 0.0
2016-Jul-25 17:25N 42°16' W 070°52'0 0.0
2016-Jul-25 16:32N 42°16' W 070°52'0 0.0
2016-Jul-25 15:30N 42°16' W 070°52'0 0.0
2016-Jul-25 14:32N 42°16' W 070°52'0 0.0
2016-Jul-25 13:21N 42°16' W 070°52'0 0.0
2016-Jul-25 12:33N 42°16' W 070°52'0 0.0
2016-Jul-25 11:33N 42°16' W 070°52'0 0.0
2016-Jul-25 10:33N 42°16' W 070°52'0 0.0
2016-Jul-25 09:33N 42°16' W 070°52'0 0.0
2016-Jul-25 08:34N 42°16' W 070°52'0 0.0
2016-Jul-25 07:34N 42°16' W 070°52'0 0.0
2016-Jul-25 06:33N 42°16' W 070°52'0 0.0
2016-Jul-25 05:33N 42°16' W 070°52'0 0.0
2016-Jul-25 04:34N 42°16' W 070°52'0 0.0
2016-Jul-25 03:33N 42°16' W 070°52'0 0.0
2016-Jul-25 02:33N 42°16' W 070°52'0 0.0
2016-Jul-25 01:34N 42°16' W 070°52'0 0.0
2016-Jul-25 00:33N 42°16' W 070°52'0 0.0
2016-Jul-24 23:33N 42°16' W 070°52'0 0.0
2016-Jul-24 22:33N 42°16' W 070°52'0 0.0
2016-Jul-24 21:34N 42°16' W 070°52'3 3.1
2016-Jul-24 20:33N 42°18' W 070°55'2 1.8
2016-Jul-24 19:34N 42°19' W 070°54'3 2.6
2016-Jul-24 18:33N 42°17' W 070°53'1 1.0
2016-Jul-24 17:31N 42°16' W 070°52'0 0.0
2016-Jul-24 16:31N 42°16' W 070°52'0 0.0
2016-Jul-24 15:23N 42°16' W 070°52'0 0.0
2016-Jul-24 14:33N 42°16' W 070°52'0 0.0
2016-Jul-24 13:33N 42°16' W 070°52'0 0.0
2016-Jul-24 12:27N 42°16' W 070°52'0 0.0
2016-Jul-24 11:30N 42°16' W 070°52'0 0.0
2016-Jul-24 10:33N 42°16' W 070°52'0 0.0
2016-Jul-24 09:31N 42°16' W 070°52'0 0.0
2016-Jul-24 08:33N 42°16' W 070°52'0 0.0
2016-Jul-24 07:22N 42°16' W 070°52'0 0.0
2016-Jul-24 06:25N 42°16' W 070°52'0 0.0
2016-Jul-24 05:28N 42°16' W 070°52'0 0.0
2016-Jul-24 04:33N 42°16' W 070°52'0 0.0
2016-Jul-24 03:29N 42°16' W 070°52'0 0.0
2016-Jul-24 02:30N 42°16' W 070°52'0 0.0
2016-Jul-24 01:28N 42°16' W 070°52'0 0.0
2016-Jul-24 00:26N 42°16' W 070°52'0 0.0
2016-Jul-23 23:31N 42°16' W 070°52'0 0.0
2016-Jul-23 22:31N 42°16' W 070°52'1 1.0
2016-Jul-23 21:33N 42°17' W 070°53'3 2.8
2016-Jul-23 20:33N 42°18' W 070°56'4 4.1
2016-Jul-23 19:33N 42°17' W 070°50'6 5.9
2016-Jul-23 18:34N 42°15' W 070°43'3 2.9
2016-Jul-23 17:25N 42°12' W 070°43'0 0.0
2016-Jul-23 12:30N 42°12' W 070°43'0 0.0
2016-Jul-23 11:25N 42°12' W 070°43'0 0.0
2016-Jul-23 10:33N 42°12' W 070°43'0 0.0
2016-Jul-23 02:25N 42°12' W 070°43'0 0.0
2016-Jul-22 22:18N 42°12' W 070°43'0 0.0
2016-Jul-22 21:33N 42°12' W 070°43'0 0.0
2016-Jul-22 16:27N 42°12' W 070°43'2 1.9
2016-Jul-22 15:33N 42°12' W 070°41'5 4.9
2016-Jul-22 14:31N 42°10' W 070°35'9 7.5
2016-Jul-22 13:23N 42°06' W 070°25'8 7.7
2016-Jul-22 12:25N 42°02' W 070°16'5 0.4
2016-Jul-21 22:23N 42°02' W 070°09'  
2016-Jul-18 12:33N 41°21' W 071°05'8 8.1
2016-Jul-18 11:33N 41°20' W 071°16'18 8.0
2016-Jul-18 09:16N 41°17' W 071°40'  
Track history (hours):
 
Tides and Currents Weather Stations Pressure Air Temp Water Temp Dewpoint Dewpoint Depression Visibility Wind Speed Wind Dir Waves Ship Positions

America

Owner: ET Yacht, LLC, San Diego, CA. More information available from US FCC via Universal Licensing System and Coast Guard Vessel Documentation Center.

Last reported at 2016-Jul-27 18:31 UTC. Time now 2016-Jul-27 19:18 UTC.
Position N 42°21' W 071°03'.

Length 42 m; draft 3.5 m.

Type: Sailing vessel. MMSI: 367375550.

Date/timePositionNaut miles runAvg speedWind from/ knotsBaromVisibWave heightAir tempDewpointWater temp
2016-Jul-27 18:31N 42°21' W 071°03'0 0.0
2016-Jul-27 17:31N 42°21' W 071°03'0 0.0
2016-Jul-27 16:31N 42°21' W 071°03'0 0.0
2016-Jul-27 15:31N 42°21' W 071°03'0 0.0
2016-Jul-27 14:31N 42°21' W 071°03'0 0.0
2016-Jul-27 13:31N 42°21' W 071°03'0 0.0
2016-Jul-27 12:31N 42°21' W 071°03'0 0.0
2016-Jul-27 11:32N 42°21' W 071°03'0 0.0
2016-Jul-27 10:33N 42°21' W 071°03'0 0.0
2016-Jul-27 09:32N 42°21' W 071°03'0 0.0
2016-Jul-27 08:32N 42°21' W 071°03'0 0.0
2016-Jul-27 07:32N 42°21' W 071°03'0 0.0
2016-Jul-27 06:33N 42°21' W 071°03'0 0.0
2016-Jul-27 05:30N 42°21' W 071°03'0 0.0
2016-Jul-27 04:33N 42°21' W 071°03'0 0.0
2016-Jul-27 03:31N 42°21' W 071°03'0 0.0
2016-Jul-27 02:32N 42°21' W 071°03'0 0.1
2016-Jul-27 01:33N 42°21' W 071°02'7 7.5
2016-Jul-27 00:33N 42°19' W 070°53'2 2.4
2016-Jul-26 23:33N 42°21' W 070°56'3 3.1
2016-Jul-26 22:33N 42°22' W 070°59'0 0.0
2016-Jul-26 21:33N 42°22' W 070°59'0 0.0
2016-Jul-26 20:33N 42°22' W 070°59'0 0.5
2016-Jul-26 19:33N 42°22' W 070°59'7 6.8
2016-Jul-26 18:33N 42°17' W 070°53'1 0.9
2016-Jul-26 17:28N 42°16' W 070°52'0 0.0
2016-Jul-26 16:19N 42°16' W 070°52'0 0.0
2016-Jul-26 15:29N 42°16' W 070°52'0 0.0
2016-Jul-26 14:19N 42°16' W 070°52'0 0.0
2016-Jul-26 13:25N 42°16' W 070°52'0 0.0
2016-Jul-26 12:19N 42°16' W 070°52'0 0.0
2016-Jul-26 11:31N 42°16' W 070°52'0 0.0
2016-Jul-26 10:28N 42°16' W 070°52'0 0.0
2016-Jul-26 09:31N 42°16' W 070°52'0 0.0
2016-Jul-26 08:32N 42°16' W 070°52'0 0.0
2016-Jul-26 07:28N 42°16' W 070°52'0 0.0
2016-Jul-26 06:32N 42°16' W 070°52'0 0.0
2016-Jul-26 05:32N 42°16' W 070°52'0 0.0
2016-Jul-26 04:31N 42°16' W 070°52'0 0.0
2016-Jul-26 03:31N 42°16' W 070°52'0 0.0
2016-Jul-26 02:16N 42°16' W 070°52'0 0.0
2016-Jul-26 01:33N 42°16' W 070°52'0 0.0
2016-Jul-26 00:32N 42°16' W 070°52'0 0.0
2016-Jul-25 23:32N 42°16' W 070°52'0 0.0
2016-Jul-25 22:31N 42°16' W 070°52'0 0.0
2016-Jul-25 21:31N 42°16' W 070°52'0 0.0
2016-Jul-25 20:27N 42°16' W 070°52'0 0.0
2016-Jul-25 19:30N 42°16' W 070°52'0 0.0
2016-Jul-25 18:24N 42°16' W 070°52'0 0.0
2016-Jul-25 17:25N 42°16' W 070°52'0 0.0
2016-Jul-25 16:32N 42°16' W 070°52'0 0.0
2016-Jul-25 15:30N 42°16' W 070°52'0 0.0
2016-Jul-25 14:32N 42°16' W 070°52'0 0.0
2016-Jul-25 13:21N 42°16' W 070°52'0 0.0
2016-Jul-25 12:33N 42°16' W 070°52'0 0.0
2016-Jul-25 11:33N 42°16' W 070°52'0 0.0
2016-Jul-25 10:33N 42°16' W 070°52'0 0.0
2016-Jul-25 09:33N 42°16' W 070°52'0 0.0
2016-Jul-25 08:34N 42°16' W 070°52'0 0.0
2016-Jul-25 07:34N 42°16' W 070°52'0 0.0
2016-Jul-25 06:33N 42°16' W 070°52'0 0.0
2016-Jul-25 05:33N 42°16' W 070°52'0 0.0
2016-Jul-25 04:34N 42°16' W 070°52'0 0.0
2016-Jul-25 03:33N 42°16' W 070°52'0 0.0
2016-Jul-25 02:33N 42°16' W 070°52'0 0.0
2016-Jul-25 01:34N 42°16' W 070°52'0 0.0
2016-Jul-25 00:33N 42°16' W 070°52'0 0.0
2016-Jul-24 23:33N 42°16' W 070°52'0 0.0
2016-Jul-24 22:33N 42°16' W 070°52'0 0.0
2016-Jul-24 21:34N 42°16' W 070°52'3 3.1
2016-Jul-24 20:33N 42°18' W 070°55'2 1.8
2016-Jul-24 19:34N 42°19' W 070°54'3 2.6
2016-Jul-24 18:33N 42°17' W 070°53'1 1.0
2016-Jul-24 17:31N 42°16' W 070°52'0 0.0
2016-Jul-24 16:31N 42°16' W 070°52'0 0.0
2016-Jul-24 15:23N 42°16' W 070°52'0 0.0
2016-Jul-24 14:33N 42°16' W 070°52'0 0.0
2016-Jul-24 13:33N 42°16' W 070°52'0 0.0
2016-Jul-24 12:27N 42°16' W 070°52'0 0.0
2016-Jul-24 11:30N 42°16' W 070°52'0 0.0
2016-Jul-24 10:33N 42°16' W 070°52'0 0.0
2016-Jul-24 09:31N 42°16' W 070°52'0 0.0
2016-Jul-24 08:33N 42°16' W 070°52'0 0.0
2016-Jul-24 07:22N 42°16' W 070°52'0 0.0
2016-Jul-24 06:25N 42°16' W 070°52'0 0.0
2016-Jul-24 05:28N 42°16' W 070°52'0 0.0
2016-Jul-24 04:33N 42°16' W 070°52'0 0.0
2016-Jul-24 03:29N 42°16' W 070°52'0 0.0
2016-Jul-24 02:30N 42°16' W 070°52'0 0.0
2016-Jul-24 01:28N 42°16' W 070°52'0 0.0
2016-Jul-24 00:26N 42°16' W 070°52'0 0.0
2016-Jul-23 23:31N 42°16' W 070°52'0 0.0
2016-Jul-23 22:31N 42°16' W 070°52'1 1.0
2016-Jul-23 21:33N 42°17' W 070°53'3 2.8
2016-Jul-23 20:33N 42°18' W 070°56'4 4.1
2016-Jul-23 19:33N 42°17' W 070°50'6 5.9
2016-Jul-23 18:34N 42°15' W 070°43'3 2.9
2016-Jul-23 17:25N 42°12' W 070°43'0 0.0
2016-Jul-23 12:30N 42°12' W 070°43'0 0.0
2016-Jul-23 11:25N 42°12' W 070°43'0 0.0
2016-Jul-23 10:33N 42°12' W 070°43'0 0.0
2016-Jul-23 02:25N 42°12' W 070°43'0 0.0
2016-Jul-22 22:18N 42°12' W 070°43'0 0.0
2016-Jul-22 21:33N 42°12' W 070°43'0 0.0
2016-Jul-22 16:27N 42°12' W 070°43'2 1.9
2016-Jul-22 15:33N 42°12' W 070°41'5 4.9
2016-Jul-22 14:31N 42°10' W 070°35'9 7.5
2016-Jul-22 13:23N 42°06' W 070°25'8 7.7
2016-Jul-22 12:25N 42°02' W 070°16'5 0.4
2016-Jul-21 22:23N 42°02' W 070°09'  
2016-Jul-18 12:33N 41°21' W 071°05'8 8.1
2016-Jul-18 11:33N 41°20' W 071°16'18 8.0
2016-Jul-18 09:16N 41°17' W 071°40'  

Dump ship's entire track history